sensor_id;sensor_type;location;lat;lon;timestamp;pressure;altitude;pressure_sealevel;temperature;humidity
54389;BME280;40975;50.390;8.640;2023-08-31T00:01:08;98344.66;;;11.27;100.00
54389;BME280;40975;50.390;8.640;2023-08-31T00:03:34;98342.34;;;11.24;100.00
54389;BME280;40975;50.390;8.640;2023-08-31T00:06:02;98349.47;;;11.23;100.00
54389;BME280;40975;50.390;8.640;2023-08-31T00:08:28;98341.84;;;11.20;100.00
54389;BME280;40975;50.390;8.640;2023-08-31T00:10:57;98347.53;;;11.17;100.00
54389;BME280;40975;50.390;8.640;2023-08-31T00:13:23;98349.66;;;11.13;100.00
54389;BME280;40975;50.390;8.640;2023-08-31T00:15:49;98355.31;;;11.10;100.00
54389;BME280;40975;50.390;8.640;2023-08-31T00:18:14;98355.66;;;11.07;100.00
54389;BME280;40975;50.390;8.640;2023-08-31T00:20:42;98352.84;;;11.00;100.00
54389;BME280;40975;50.390;8.640;2023-08-31T00:23:08;98358.81;;;11.02;100.00
54389;BME280;40975;50.390;8.640;2023-08-31T00:25:33;98364.63;;;10.98;100.00
54389;BME280;40975;50.390;8.640;2023-08-31T00:27:59;98364.31;;;10.93;100.00
54389;BME280;40975;50.390;8.640;2023-08-31T00:30:30;98362.13;;;10.88;100.00
54389;BME280;40975;50.390;8.640;2023-08-31T00:32:55;98360.66;;;10.85;100.00
54389;BME280;40975;50.390;8.640;2023-08-31T00:35:27;98367.78;;;10.85;100.00
54389;BME280;40975;50.390;8.640;2023-08-31T00:37:53;98362.50;;;10.85;100.00
54389;BME280;40975;50.390;8.640;2023-08-31T00:40:26;98366.47;;;10.81;100.00
54389;BME280;40975;50.390;8.640;2023-08-31T00:42:53;98368.78;;;10.84;100.00
54389;BME280;40975;50.390;8.640;2023-08-31T00:45:18;98371.94;;;10.79;100.00
54389;BME280;40975;50.390;8.640;2023-08-31T00:47:45;98377.94;;;10.81;100.00
54389;BME280;40975;50.390;8.640;2023-08-31T00:50:12;98371.78;;;10.81;100.00
54389;BME280;40975;50.390;8.640;2023-08-31T00:52:38;98375.41;;;10.80;100.00
54389;BME280;40975;50.390;8.640;2023-08-31T00:55:04;98375.09;;;10.83;100.00
54389;BME280;40975;50.390;8.640;2023-08-31T00:57:33;98376.56;;;10.85;100.00
54389;BME280;40975;50.390;8.640;2023-08-31T00:59:58;98374.91;;;10.84;100.00
54389;BME280;40975;50.390;8.640;2023-08-31T01:02:37;98377.94;;;10.81;100.00
54389;BME280;40975;50.390;8.640;2023-08-31T01:05:13;98375.59;;;10.78;100.00
54389;BME280;40975;50.390;8.640;2023-08-31T01:10:32;98383.38;;;10.80;100.00
54389;BME280;40975;50.390;8.640;2023-08-31T01:13:03;98380.09;;;10.78;100.00
54389;BME280;40975;50.390;8.640;2023-08-31T01:15:38;98374.91;;;10.76;100.00
54389;BME280;40975;50.390;8.640;2023-08-31T01:18:06;98375.09;;;10.75;100.00
54389;BME280;40975;50.390;8.640;2023-08-31T01:20:45;98382.88;;;10.76;100.00
54389;BME280;40975;50.390;8.640;2023-08-31T01:23:18;98375.25;;;10.73;100.00
54389;BME280;40975;50.390;8.640;2023-08-31T01:25:45;98374.44;;;10.72;100.00
54389;BME280;40975;50.390;8.640;2023-08-31T01:28:11;98376.59;;;10.69;100.00
54389;BME280;40975;50.390;8.640;2023-08-31T01:30:37;98371.28;;;10.69;100.00
54389;BME280;40975;50.390;8.640;2023-08-31T01:33:02;98373.63;;;10.72;100.00
54389;BME280;40975;50.390;8.640;2023-08-31T01:35:30;98382.38;;;10.72;100.00
54389;BME280;40975;50.390;8.640;2023-08-31T01:37:59;98382.56;;;10.71;100.00
54389;BME280;40975;50.390;8.640;2023-08-31T01:40:44;98380.91;;;10.70;100.00
54389;BME280;40975;50.390;8.640;2023-08-31T01:43:13;98383.22;;;10.73;100.00
54389;BME280;40975;50.390;8.640;2023-08-31T01:45:39;98380.91;;;10.70;100.00
54389;BME280;40975;50.390;8.640;2023-08-31T01:48:06;98387.03;;;10.70;100.00
54389;BME280;40975;50.390;8.640;2023-08-31T01:50:31;98387.88;;;10.71;100.00
54389;BME280;40975;50.390;8.640;2023-08-31T01:52:56;98388.03;;;10.69;100.00
54389;BME280;40975;50.390;8.640;2023-08-31T01:55:23;98383.06;;;10.66;100.00
54389;BME280;40975;50.390;8.640;2023-08-31T01:57:48;98396.81;;;10.62;100.00
54389;BME280;40975;50.390;8.640;2023-08-31T02:00:21;98392.50;;;10.61;100.00
54389;BME280;40975;50.390;8.640;2023-08-31T02:02:46;98394.50;;;10.58;100.00
54389;BME280;40975;50.390;8.640;2023-08-31T02:05:12;98392.66;;;10.51;100.00
54389;BME280;40975;50.390;8.640;2023-08-31T02:07:38;98391.16;;;10.48;100.00
54389;BME280;40975;50.390;8.640;2023-08-31T02:10:05;98398.94;;;10.41;100.00
54389;BME280;40975;50.390;8.640;2023-08-31T02:12:32;98391.44;;;10.37;100.00
54389;BME280;40975;50.390;8.640;2023-08-31T02:14:58;98394.97;;;10.37;100.00
54389;BME280;40975;50.390;8.640;2023-08-31T02:17:24;98390.47;;;10.38;100.00
54389;BME280;40975;50.390;8.640;2023-08-31T02:19:50;98398.44;;;10.38;100.00
54389;BME280;40975;50.390;8.640;2023-08-31T02:22:16;98396.91;;;10.35;100.00
54389;BME280;40975;50.390;8.640;2023-08-31T02:24:41;98396.06;;;10.35;100.00
54389;BME280;40975;50.390;8.640;2023-08-31T02:27:06;98402.06;;;10.37;100.00
54389;BME280;40975;50.390;8.640;2023-08-31T02:29:31;98401.25;;;10.36;100.00
54389;BME280;40975;50.390;8.640;2023-08-31T02:31:57;98398.72;;;10.35;100.00
54389;BME280;40975;50.390;8.640;2023-08-31T02:34:22;98403.22;;;10.34;100.00
54389;BME280;40975;50.390;8.640;2023-08-31T02:36:48;98403.38;;;10.33;100.00
54389;BME280;40975;50.390;8.640;2023-08-31T02:39:13;98407.84;;;10.32;100.00
54389;BME280;40975;50.390;8.640;2023-08-31T02:41:39;98404.19;;;10.33;100.00
54389;BME280;40975;50.390;8.640;2023-08-31T02:44:05;98397.91;;;10.34;100.00
54389;BME280;40975;50.390;8.640;2023-08-31T02:46:30;98409.50;;;10.33;100.00
54389;BME280;40975;50.390;8.640;2023-08-31T02:48:56;98399.22;;;10.30;100.00
54389;BME280;40975;50.390;8.640;2023-08-31T02:51:21;98396.56;;;10.30;100.00
54389;BME280;40975;50.390;8.640;2023-08-31T02:53:46;98393.78;;;10.32;100.00
54389;BME280;40975;50.390;8.640;2023-08-31T02:56:12;98392.59;;;10.34;100.00
54389;BME280;40975;50.390;8.640;2023-08-31T02:58:37;98394.09;;;10.37;100.00
54389;BME280;40975;50.390;8.640;2023-08-31T03:01:07;98395.94;;;10.36;100.00
54389;BME280;40975;50.390;8.640;2023-08-31T03:03:33;98393.13;;;10.38;100.00
54389;BME280;40975;50.390;8.640;2023-08-31T03:06:00;98383.47;;;10.37;100.00
54389;BME280;40975;50.390;8.640;2023-08-31T03:08:25;98390.31;;;10.39;100.00
54389;BME280;40975;50.390;8.640;2023-08-31T03:10:51;98391.44;;;10.37;100.00
54389;BME280;40975;50.390;8.640;2023-08-31T03:13:16;98391.16;;;10.40;100.00
54389;BME280;40975;50.390;8.640;2023-08-31T03:15:41;98398.63;;;10.45;100.00
54389;BME280;40975;50.390;8.640;2023-08-31T03:18:07;98398.63;;;10.45;100.00
54389;BME280;40975;50.390;8.640;2023-08-31T03:20:32;98398.78;;;10.43;100.00
54389;BME280;40975;50.390;8.640;2023-08-31T03:22:58;98405.72;;;10.44;100.00
54389;BME280;40975;50.390;8.640;2023-08-31T03:25:23;98406.41;;;10.46;100.00
54389;BME280;40975;50.390;8.640;2023-08-31T03:27:49;98407.09;;;10.48;100.00
54389;BME280;40975;50.390;8.640;2023-08-31T03:30:14;98399.13;;;10.48;100.00
54389;BME280;40975;50.390;8.640;2023-08-31T03:32:40;98408.56;;;10.51;100.00
54389;BME280;40975;50.390;8.640;2023-08-31T03:35:06;98409.91;;;10.47;100.00
54389;BME280;40975;50.390;8.640;2023-08-31T03:37:32;98406.91;;;10.41;100.00
54389;BME280;40975;50.390;8.640;2023-08-31T03:39:58;98407.34;;;10.37;100.00
54389;BME280;40975;50.390;8.640;2023-08-31T03:42:24;98414.00;;;10.33;100.00
54389;BME280;40975;50.390;8.640;2023-08-31T03:44:49;98423.44;;;10.27;100.00
54389;BME280;40975;50.390;8.640;2023-08-31T03:47:16;98422.38;;;10.20;100.00
54389;BME280;40975;50.390;8.640;2023-08-31T03:49:41;98423.72;;;10.16;100.00
54389;BME280;40975;50.390;8.640;2023-08-31T03:52:06;98427.00;;;10.09;100.00
54389;BME280;40975;50.390;8.640;2023-08-31T03:54:32;98426.34;;;10.07;100.00
54389;BME280;40975;50.390;8.640;2023-08-31T03:56:57;98431.28;;;10.02;100.00
54389;BME280;40975;50.390;8.640;2023-08-31T03:59:23;98418.69;;;9.96;100.00
54389;BME280;40975;50.390;8.640;2023-08-31T04:01:48;98427.81;;;10.02;100.00
54389;BME280;40975;50.390;8.640;2023-08-31T04:04:14;98433.25;;;10.00;100.00
54389;BME280;40975;50.390;8.640;2023-08-31T04:06:39;98429.13;;;9.98;100.00
54389;BME280;40975;50.390;8.640;2023-08-31T04:09:05;98437.06;;;9.98;100.00
54389;BME280;40975;50.390;8.640;2023-08-31T04:11:32;98440.22;;;10.01;100.00
54389;BME280;40975;50.390;8.640;2023-08-31T04:13:57;98438.91;;;9.97;100.00
54389;BME280;40975;50.390;8.640;2023-08-31T04:16:23;98442.38;;;9.98;100.00
54389;BME280;40975;50.390;8.640;2023-08-31T04:18:48;98447.00;;;9.95;100.00
54389;BME280;40975;50.390;8.640;2023-08-31T04:21:17;98445.97;;;9.88;100.00
54389;BME280;40975;50.390;8.640;2023-08-31T04:23:43;98443.97;;;9.82;100.00
54389;BME280;40975;50.390;8.640;2023-08-31T04:26:12;98452.41;;;9.77;100.00
54389;BME280;40975;50.390;8.640;2023-08-31T04:28:39;98450.88;;;9.75;100.00
54389;BME280;40975;50.390;8.640;2023-08-31T04:31:05;98451.84;;;9.74;100.00
54389;BME280;40975;50.390;8.640;2023-08-31T04:33:33;98455.53;;;9.73;100.00
54389;BME280;40975;50.390;8.640;2023-08-31T04:35:59;98461.28;;;9.68;100.00
54389;BME280;40975;50.390;8.640;2023-08-31T04:38:24;98459.28;;;9.70;100.00
54389;BME280;40975;50.390;8.640;2023-08-31T04:40:50;98441.34;;;9.56;100.00
54389;BME280;40975;50.390;8.640;2023-08-31T04:43:15;98456.97;;;9.67;100.00
54389;BME280;40975;50.390;8.640;2023-08-31T04:45:40;98468.09;;;9.71;100.00
54389;BME280;40975;50.390;8.640;2023-08-31T04:48:06;98465.56;;;9.69;100.00
54389;BME280;40975;50.390;8.640;2023-08-31T04:50:31;98475.53;;;9.67;100.00
54389;BME280;40975;50.390;8.640;2023-08-31T04:52:56;98472.72;;;9.69;100.00
54389;BME280;40975;50.390;8.640;2023-08-31T04:55:22;98470.22;;;9.67;100.00
54389;BME280;40975;50.390;8.640;2023-08-31T04:57:47;98472.72;;;9.69;100.00
54389;BME280;40975;50.390;8.640;2023-08-31T05:00:13;98471.56;;;9.71;100.00
54389;BME280;40975;50.390;8.640;2023-08-31T05:02:38;98471.41;;;9.73;100.00
54389;BME280;40975;50.390;8.640;2023-08-31T05:05:05;98464.47;;;9.72;100.00
54389;BME280;40975;50.390;8.640;2023-08-31T05:07:30;98484.66;;;9.73;100.00
54389;BME280;40975;50.390;8.640;2023-08-31T05:09:56;98491.31;;;9.77;100.00
54389;BME280;40975;50.390;8.640;2023-08-31T05:12:21;98482.06;;;9.81;100.00
54389;BME280;40975;50.390;8.640;2023-08-31T05:14:46;98483.56;;;9.84;100.00
54389;BME280;40975;50.390;8.640;2023-08-31T05:17:11;98485.72;;;9.88;100.00
54389;BME280;40975;50.390;8.640;2023-08-31T05:19:37;98487.09;;;9.92;100.00
54389;BME280;40975;50.390;8.640;2023-08-31T05:22:02;98488.41;;;9.96;100.00
54389;BME280;40975;50.390;8.640;2023-08-31T05:24:27;98495.75;;;10.03;100.00
54389;BME280;40975;50.390;8.640;2023-08-31T05:26:53;98496.09;;;10.08;100.00
54389;BME280;40975;50.390;8.640;2023-08-31T05:29:18;98500.63;;;10.16;100.00
54389;BME280;40975;50.390;8.640;2023-08-31T05:31:43;98508.78;;;10.22;100.00
54389;BME280;40975;50.390;8.640;2023-08-31T05:34:09;98502.81;;;10.29;100.00
54389;BME280;40975;50.390;8.640;2023-08-31T05:36:35;98508.31;;;10.35;100.00
54389;BME280;40975;50.390;8.640;2023-08-31T05:39:00;98520.47;;;10.46;100.00
54389;BME280;40975;50.390;8.640;2023-08-31T05:41:26;98518.84;;;10.53;100.00
54389;BME280;40975;50.390;8.640;2023-08-31T05:43:52;98525.19;;;10.61;100.00
54389;BME280;40975;50.390;8.640;2023-08-31T05:46:17;98534.66;;;10.71;100.00
54389;BME280;40975;50.390;8.640;2023-08-31T05:48:42;98534.34;;;10.83;100.00
54389;BME280;40975;50.390;8.640;2023-08-31T05:51:08;98544.66;;;10.94;100.00
54389;BME280;40975;50.390;8.640;2023-08-31T05:53:33;98547.66;;;10.99;100.00
54389;BME280;40975;50.390;8.640;2023-08-31T05:55:59;98541.88;;;11.12;100.00
54389;BME280;40975;50.390;8.640;2023-08-31T05:58:33;98544.38;;;11.22;100.00
54389;BME280;40975;50.390;8.640;2023-08-31T06:00:58;98541.38;;;11.33;100.00
54389;BME280;40975;50.390;8.640;2023-08-31T06:03:24;98544.22;;;11.40;100.00
54389;BME280;40975;50.390;8.640;2023-08-31T06:05:50;98541.72;;;11.39;100.00
54389;BME280;40975;50.390;8.640;2023-08-31T06:08:15;98549.34;;;11.50;100.00
54389;BME280;40975;50.390;8.640;2023-08-31T06:10:40;98542.72;;;11.62;100.00
54389;BME280;40975;50.390;8.640;2023-08-31T06:13:08;98546.84;;;11.73;100.00
54389;BME280;40975;50.390;8.640;2023-08-31T06:15:33;98556.63;;;11.89;100.00
54389;BME280;40975;50.390;8.640;2023-08-31T06:17:58;98554.00;;;11.97;100.00
54389;BME280;40975;50.390;8.640;2023-08-31T06:20:24;98560.13;;;12.06;100.00
54389;BME280;40975;50.390;8.640;2023-08-31T06:22:49;98565.38;;;12.23;100.00
54389;BME280;40975;50.390;8.640;2023-08-31T06:25:14;98575.59;;;12.59;100.00
54389;BME280;40975;50.390;8.640;2023-08-31T06:27:42;98580.78;;;13.15;100.00
54389;BME280;40975;50.390;8.640;2023-08-31T06:30:08;98581.41;;;13.49;100.00
54389;BME280;40975;50.390;8.640;2023-08-31T06:32:34;98585.47;;;14.13;100.00
54389;BME280;40975;50.390;8.640;2023-08-31T06:34:59;98580.09;;;14.51;100.00
54389;BME280;40975;50.390;8.640;2023-08-31T06:37:24;98585.47;;;14.88;100.00
54389;BME280;40975;50.390;8.640;2023-08-31T06:39:50;98580.78;;;14.60;100.00
54389;BME280;40975;50.390;8.640;2023-08-31T06:42:15;98577.78;;;14.33;100.00
54389;BME280;40975;50.390;8.640;2023-08-31T06:44:43;98583.19;;;14.10;100.00
54389;BME280;40975;50.390;8.640;2023-08-31T06:47:08;98586.56;;;13.89;100.00
54389;BME280;40975;50.390;8.640;2023-08-31T06:49:34;98599.16;;;13.80;100.00
54389;BME280;40975;50.390;8.640;2023-08-31T06:52:00;98595.22;;;13.52;100.00
54389;BME280;40975;50.390;8.640;2023-08-31T06:54:27;98594.06;;;13.70;100.00
54389;BME280;40975;50.390;8.640;2023-08-31T06:56:52;98599.78;;;14.20;100.00
54389;BME280;40975;50.390;8.640;2023-08-31T06:59:17;98605.47;;;14.32;100.00
54389;BME280;40975;50.390;8.640;2023-08-31T07:01:42;98610.16;;;14.60;100.00
54389;BME280;40975;50.390;8.640;2023-08-31T07:04:08;98613.31;;;14.49;100.00
54389;BME280;40975;50.390;8.640;2023-08-31T07:06:35;98618.63;;;14.64;100.00
54389;BME280;40975;50.390;8.640;2023-08-31T07:09:00;98614.25;;;14.71;100.00
54389;BME280;40975;50.390;8.640;2023-08-31T07:11:25;98627.97;;;14.68;100.00
54389;BME280;40975;50.390;8.640;2023-08-31T07:13:52;98625.28;;;14.98;100.00
54389;BME280;40975;50.390;8.640;2023-08-31T07:16:18;98620.19;;;15.03;100.00
54389;BME280;40975;50.390;8.640;2023-08-31T07:18:43;98618.56;;;15.23;100.00
54389;BME280;40975;50.390;8.640;2023-08-31T07:21:08;98621.53;;;15.50;100.00
54389;BME280;40975;50.390;8.640;2023-08-31T07:23:34;98616.41;;;15.12;100.00
54389;BME280;40975;50.390;8.640;2023-08-31T07:25:59;98621.75;;;15.12;100.00
54389;BME280;40975;50.390;8.640;2023-08-31T07:28:29;98628.56;;;15.15;100.00
54389;BME280;40975;50.390;8.640;2023-08-31T07:33:28;98624.78;;;15.09;100.00
54389;BME280;40975;50.390;8.640;2023-08-31T07:35:55;98629.84;;;15.04;100.00
54389;BME280;40975;50.390;8.640;2023-08-31T07:38:21;98630.16;;;14.94;100.00
54389;BME280;40975;50.390;8.640;2023-08-31T07:40:46;98631.28;;;14.85;100.00
54389;BME280;40975;50.390;8.640;2023-08-31T07:43:11;98628.03;;;14.59;100.00
54389;BME280;40975;50.390;8.640;2023-08-31T07:45:37;98638.44;;;14.84;100.00
54389;BME280;40975;50.390;8.640;2023-08-31T07:48:02;98639.09;;;14.86;100.00
54389;BME280;40975;50.390;8.640;2023-08-31T07:50:28;98638.13;;;15.24;100.00
54389;BME280;40975;50.390;8.640;2023-08-31T07:52:53;98648.19;;;15.44;100.00
54389;BME280;40975;50.390;8.640;2023-08-31T07:55:19;98652.06;;;15.63;100.00
54389;BME280;40975;50.390;8.640;2023-08-31T07:57:44;98648.44;;;15.70;100.00
54389;BME280;40975;50.390;8.640;2023-08-31T08:00:10;98651.69;;;15.66;98.08
54389;BME280;40975;50.390;8.640;2023-08-31T08:02:38;98655.72;;;15.55;98.58
54389;BME280;40975;50.390;8.640;2023-08-31T08:05:04;98650.19;;;15.78;97.27
54389;BME280;40975;50.390;8.640;2023-08-31T08:07:29;98666.16;;;16.15;100.00
54389;BME280;40975;50.390;8.640;2023-08-31T08:09:55;98667.03;;;16.51;93.81
54389;BME280;40975;50.390;8.640;2023-08-31T08:12:20;98675.84;;;17.15;93.45
54389;BME280;40975;50.390;8.640;2023-08-31T08:14:45;98675.47;;;17.24;88.67
54389;BME280;40975;50.390;8.640;2023-08-31T08:17:11;98674.53;;;16.97;87.63
54389;BME280;40975;50.390;8.640;2023-08-31T08:19:36;98678.34;;;16.81;94.89
54389;BME280;40975;50.390;8.640;2023-08-31T08:22:01;98686.06;;;16.34;88.99
54389;BME280;40975;50.390;8.640;2023-08-31T08:24:27;98683.25;;;16.14;93.11
54389;BME280;40975;50.390;8.640;2023-08-31T08:26:52;98692.38;;;15.98;92.16
54389;BME280;40975;50.390;8.640;2023-08-31T08:29:18;98693.59;;;15.95;94.71
54389;BME280;40975;50.390;8.640;2023-08-31T08:31:43;98684.19;;;16.28;98.55
54389;BME280;40975;50.390;8.640;2023-08-31T08:34:08;98690.16;;;16.30;93.83
54389;BME280;40975;50.390;8.640;2023-08-31T08:36:34;98692.84;;;16.30;95.87
54389;BME280;40975;50.390;8.640;2023-08-31T08:38:59;98693.25;;;16.05;93.59
54389;BME280;40975;50.390;8.640;2023-08-31T08:41:27;98690.56;;;16.05;98.23
54389;BME280;40975;50.390;8.640;2023-08-31T08:43:53;98691.59;;;16.54;92.96
54389;BME280;40975;50.390;8.640;2023-08-31T08:46:22;98703.84;;;16.42;96.17
54389;BME280;40975;50.390;8.640;2023-08-31T08:48:48;98695.81;;;16.42;89.68
54389;BME280;40975;50.390;8.640;2023-08-31T08:51:14;98691.72;;;16.17;88.11
54389;BME280;40975;50.390;8.640;2023-08-31T08:53:43;98703.59;;;16.08;95.07
54389;BME280;40975;50.390;8.640;2023-08-31T08:56:08;98694.03;;;15.99;97.18
54389;BME280;40975;50.390;8.640;2023-08-31T08:58:34;98706.56;;;16.20;94.46
54389;BME280;40975;50.390;8.640;2023-08-31T09:00:59;98705.91;;;16.18;97.99
54389;BME280;40975;50.390;8.640;2023-08-31T09:03:25;98704.03;;;16.12;94.41
54389;BME280;40975;50.390;8.640;2023-08-31T09:05:51;98696.09;;;16.54;91.53
54389;BME280;40975;50.390;8.640;2023-08-31T09:08:25;98702.34;;;16.96;85.68
54389;BME280;40975;50.390;8.640;2023-08-31T09:10:50;98705.53;;;16.78;82.27
54389;BME280;40975;50.390;8.640;2023-08-31T09:13:17;98706.59;;;16.48;84.22
54389;BME280;40975;50.390;8.640;2023-08-31T09:15:48;98704.59;;;18.16;79.44
54389;BME280;40975;50.390;8.640;2023-08-31T09:18:30;98711.81;;;18.09;80.85
54389;BME280;40975;50.390;8.640;2023-08-31T09:21:00;98710.69;;;20.71;73.53
54389;BME280;40975;50.390;8.640;2023-08-31T09:23:26;98702.16;;;21.11;63.34
54389;BME280;40975;50.390;8.640;2023-08-31T09:25:54;98706.00;;;23.21;60.51
54389;BME280;40975;50.390;8.640;2023-08-31T09:28:22;98697.63;;;20.75;62.72
54389;BME280;40975;50.390;8.640;2023-08-31T09:30:49;98714.69;;;19.40;70.18
54389;BME280;40975;50.390;8.640;2023-08-31T09:33:16;98707.38;;;19.09;70.48
54389;BME280;40975;50.390;8.640;2023-08-31T09:35:57;98709.91;;;18.70;74.95
54389;BME280;40975;50.390;8.640;2023-08-31T09:38:23;98710.97;;;19.35;72.75
54389;BME280;40975;50.390;8.640;2023-08-31T09:40:48;98704.97;;;23.10;57.50
54389;BME280;40975;50.390;8.640;2023-08-31T09:43:19;98701.53;;;23.14;55.84
54389;BME280;40975;50.390;8.640;2023-08-31T09:45:45;98710.78;;;23.71;56.89
54389;BME280;40975;50.390;8.640;2023-08-31T09:48:11;98690.78;;;22.79;55.59
54389;BME280;40975;50.390;8.640;2023-08-31T09:50:37;98703.94;;;25.05;51.98
54389;BME280;40975;50.390;8.640;2023-08-31T09:53:04;98716.97;;;24.86;57.26
54389;BME280;40975;50.390;8.640;2023-08-31T09:55:33;98712.16;;;26.80;51.67
54389;BME280;40975;50.390;8.640;2023-08-31T09:58:01;98688.88;;;23.90;51.36
54389;BME280;40975;50.390;8.640;2023-08-31T10:00:30;98697.00;;;25.14;49.90
54389;BME280;40975;50.390;8.640;2023-08-31T10:02:57;98693.22;;;22.92;53.12
54389;BME280;40975;50.390;8.640;2023-08-31T10:05:24;98685.63;;;23.18;52.66
54389;BME280;40975;50.390;8.640;2023-08-31T10:07:50;98697.59;;;22.81;54.27
54389;BME280;40975;50.390;8.640;2023-08-31T10:10:16;98698.16;;;23.77;52.04
54389;BME280;40975;50.390;8.640;2023-08-31T10:12:42;98704.84;;;24.37;52.37
54389;BME280;40975;50.390;8.640;2023-08-31T10:15:09;98697.66;;;22.15;55.52
54389;BME280;40975;50.390;8.640;2023-08-31T10:17:36;98694.47;;;22.07;55.06
54389;BME280;40975;50.390;8.640;2023-08-31T10:20:02;98694.97;;;22.87;53.30
54389;BME280;40975;50.390;8.640;2023-08-31T10:22:28;98699.56;;;22.39;54.50
54389;BME280;40975;50.390;8.640;2023-08-31T10:25:02;98705.75;;;21.24;60.28
54389;BME280;40975;50.390;8.640;2023-08-31T10:27:43;98718.16;;;20.94;66.45
54389;BME280;40975;50.390;8.640;2023-08-31T10:30:13;98702.56;;;22.07;58.06
54389;BME280;40975;50.390;8.640;2023-08-31T10:32:39;98703.34;;;22.85;55.43
54389;BME280;40975;50.390;8.640;2023-08-31T10:35:05;98697.38;;;24.11;51.50
54389;BME280;40975;50.390;8.640;2023-08-31T10:37:31;98711.25;;;24.65;55.50
54389;BME280;40975;50.390;8.640;2023-08-31T10:40:07;98707.38;;;23.93;54.98
54389;BME280;40975;50.390;8.640;2023-08-31T10:42:41;98709.75;;;22.13;61.32
54389;BME280;40975;50.390;8.640;2023-08-31T10:45:07;98716.41;;;21.37;63.32
54389;BME280;40975;50.390;8.640;2023-08-31T10:47:42;98722.38;;;23.02;63.64
54389;BME280;40975;50.390;8.640;2023-08-31T10:50:21;98708.78;;;21.46;62.68
54389;BME280;40975;50.390;8.640;2023-08-31T10:52:47;98716.31;;;21.44;64.23
54389;BME280;40975;50.390;8.640;2023-08-31T10:55:13;98708.78;;;22.07;61.26
54389;BME280;40975;50.390;8.640;2023-08-31T10:57:40;98717.25;;;21.01;63.89
54389;BME280;40975;50.390;8.640;2023-08-31T11:00:07;98710.03;;;21.32;66.50
54389;BME280;40975;50.390;8.640;2023-08-31T11:02:37;98707.84;;;21.22;64.08
54389;BME280;40975;50.390;8.640;2023-08-31T11:05:12;98718.88;;;22.00;65.27
54389;BME280;40975;50.390;8.640;2023-08-31T11:07:40;98699.88;;;21.15;61.31
54389;BME280;40975;50.390;8.640;2023-08-31T11:10:11;98712.34;;;22.31;63.13
54389;BME280;40975;50.390;8.640;2023-08-31T11:12:37;98721.31;;;22.91;63.49
54389;BME280;40975;50.390;8.640;2023-08-31T11:15:03;98709.06;;;23.24;58.35
54389;BME280;40975;50.390;8.640;2023-08-31T11:17:29;98704.03;;;23.45;56.08
54389;BME280;40975;50.390;8.640;2023-08-31T11:19:54;98696.84;;;23.10;55.17
54389;BME280;40975;50.390;8.640;2023-08-31T11:22:21;98693.06;;;23.23;53.34
54389;BME280;40975;50.390;8.640;2023-08-31T11:24:46;98690.34;;;23.23;52.09
54389;BME280;40975;50.390;8.640;2023-08-31T11:27:11;98688.16;;;22.36;53.61
54389;BME280;40975;50.390;8.640;2023-08-31T11:29:38;98709.88;;;22.18;61.82
54389;BME280;40975;50.390;8.640;2023-08-31T11:32:04;98705.00;;;22.62;57.87
54389;BME280;40975;50.390;8.640;2023-08-31T11:34:30;98700.66;;;22.73;59.92
54389;BME280;40975;50.390;8.640;2023-08-31T11:36:55;98700.88;;;22.72;58.12
54389;BME280;40975;50.390;8.640;2023-08-31T11:39:21;98690.56;;;22.02;57.71
54389;BME280;40975;50.390;8.640;2023-08-31T11:41:47;98682.63;;;22.31;55.84
54389;BME280;40975;50.390;8.640;2023-08-31T11:44:15;98692.63;;;22.78;56.90
54389;BME280;40975;50.390;8.640;2023-08-31T11:46:45;98689.25;;;22.59;54.15
54389;BME280;40975;50.390;8.640;2023-08-31T11:49:13;98678.91;;;22.56;52.87
54389;BME280;40975;50.390;8.640;2023-08-31T11:51:39;98672.00;;;21.82;53.73
54389;BME280;40975;50.390;8.640;2023-08-31T11:54:05;98678.03;;;22.08;54.97
54389;BME280;40975;50.390;8.640;2023-08-31T11:56:41;98684.03;;;21.68;55.52
54389;BME280;40975;50.390;8.640;2023-08-31T11:59:09;98688.50;;;22.28;56.02
54389;BME280;40975;50.390;8.640;2023-08-31T12:01:38;98677.31;;;22.13;54.36
54389;BME280;40975;50.390;8.640;2023-08-31T12:04:09;98677.09;;;22.38;53.40
54389;BME280;40975;50.390;8.640;2023-08-31T12:06:35;98687.22;;;22.31;57.35
54389;BME280;40975;50.390;8.640;2023-08-31T12:09:00;98675.09;;;22.33;51.67
54389;BME280;40975;50.390;8.640;2023-08-31T12:11:26;98682.19;;;22.46;54.70
54389;BME280;40975;50.390;8.640;2023-08-31T12:13:51;98686.75;;;22.81;55.67
54389;BME280;40975;50.390;8.640;2023-08-31T12:16:17;98692.53;;;22.49;59.54
54389;BME280;40975;50.390;8.640;2023-08-31T12:18:43;98671.41;;;21.92;57.94
54389;BME280;40975;50.390;8.640;2023-08-31T12:21:08;98672.22;;;21.81;57.29
54389;BME280;40975;50.390;8.640;2023-08-31T12:23:34;98673.38;;;21.24;58.13
54389;BME280;40975;50.390;8.640;2023-08-31T12:25:59;98659.63;;;21.74;56.63
54389;BME280;40975;50.390;8.640;2023-08-31T12:28:25;98658.31;;;21.35;56.02
54389;BME280;40975;50.390;8.640;2023-08-31T12:30:54;98677.63;;;21.01;62.34
54389;BME280;40975;50.390;8.640;2023-08-31T12:33:22;98668.25;;;21.34;61.35
54389;BME280;40975;50.390;8.640;2023-08-31T12:35:47;98655.91;;;21.57;57.70
54389;BME280;40975;50.390;8.640;2023-08-31T12:38:13;98659.44;;;21.27;57.57
54389;BME280;40975;50.390;8.640;2023-08-31T12:40:38;98651.47;;;21.32;56.77
54389;BME280;40975;50.390;8.640;2023-08-31T12:45:32;98658.72;;;21.50;56.02
54389;BME280;40975;50.390;8.640;2023-08-31T12:47:59;98653.28;;;21.69;54.24
54389;BME280;40975;50.390;8.640;2023-08-31T12:50:24;98646.19;;;21.25;54.17
54389;BME280;40975;50.390;8.640;2023-08-31T12:52:49;98645.03;;;20.84;54.40
54389;BME280;40975;50.390;8.640;2023-08-31T12:55:15;98644.69;;;21.11;55.50
54389;BME280;40975;50.390;8.640;2023-08-31T12:57:41;98643.47;;;21.56;55.07
54389;BME280;40975;50.390;8.640;2023-08-31T13:00:08;98637.88;;;21.39;53.79